Time;durP1;ratioP1;P1;durP2;ratioP2;P2;SDS_P1;SDS_P2;PMS_P1;PMS_P2;Temp;Humidity;BMP_temperature;BMP_pressure;BME280_temperature;BME280_humidity;BME280_pressure;Samples;Min_cycle;Max_cycle;Signal;HPM_P1;HPM_P2
2022/06/03 00:01:55;;;;;;;8.27;4.40;;;16.30;1.00;;;;;;5032246;28;20478;-60
2022/06/03 00:05:07;;;;;;;8.15;4.50;;;16.30;1.00;;;;;;5032003;28;20469;-59
2022/06/03 00:08:10;;;;;;;7.93;4.60;;;16.00;97.20;;;;;;5023179;28;20405;-60
2022/06/03 00:10:53;;;;;;;8.32;4.53;;;15.90;99.90;;;;;;5052100;28;20409;-60
2022/06/03 00:13:43;;;;;;;7.80;4.50;;;15.90;99.90;;;;;;5051998;28;20413;-64
2022/06/03 00:16:37;;;;;;;7.65;4.70;;;15.80;1.00;;;;;;5051392;28;20386;-63
2022/06/03 00:19:24;;;;;;;8.10;4.50;;;15.80;1.00;;;;;;5051430;28;20385;-60
2022/06/03 00:22:10;;;;;;;8.20;5.10;;;15.80;1.00;;;;;;5051130;28;20393;-60
2022/06/03 00:24:48;;;;;;;8.52;4.90;;;15.80;99.90;;;;;;5051889;28;20418;-61
2022/06/03 00:27:39;;;;;;;8.32;4.57;;;15.80;99.90;;;;;;5052141;28;20813;-60
2022/06/03 00:30:23;;;;;;;8.65;4.90;;;15.70;1.00;;;;;;5050953;28;20386;-60
2022/06/03 00:33:05;;;;;;;8.50;4.70;;;15.80;99.90;;;;;;5050976;28;20377;-56
2022/06/03 00:35:50;;;;;;;7.47;4.80;;;15.80;99.90;;;;;;5036649;28;20389;-60
2022/06/03 00:38:36;;;;;;;10.45;4.70;;;15.90;99.90;;;;;;5051142;28;20373;-61
2022/06/03 00:41:32;;;;;;;9.68;5.45;;;16.00;99.90;;;;;;5050421;28;20754;-60
2022/06/03 00:44:29;;;;;;;8.40;4.65;;;16.00;99.90;;;;;;5049905;28;20518;-59
2022/06/03 00:46:57;;;;;;;8.75;5.13;;;15.80;99.90;;;;;;5043872;28;20393;-63
2022/06/03 00:49:41;;;;;;;8.50;5.20;;;15.70;1.00;;;;;;5051098;28;20393;-62
2022/06/03 00:52:22;;;;;;;9.27;5.40;;;15.60;1.00;;;;;;5050539;28;20701;-61
2022/06/03 00:55:13;;;;;;;9.50;5.20;;;15.60;1.00;;;;;;5050625;28;20416;-55
2022/06/03 00:58:00;;;;;;;9.50;5.20;;;15.60;1.00;;;;;;5050678;28;20405;-59
2022/06/03 01:00:32;;;;;;;7.75;5.15;;;15.60;1.00;;;;;;5040569;28;20742;-64
2022/06/03 01:03:22;;;;;;;8.00;5.00;;;15.60;1.00;;;;;;5050512;28;20431;-60
2022/06/03 01:06:12;;;;;;;11.00;5.53;;;15.50;1.00;;;;;;5049755;28;20404;-56
2022/06/03 01:09:21;;;;;;;10.40;5.97;;;15.40;99.90;;;;;;5050824;28;20385;-60
2022/06/03 01:12:08;;;;;;;8.82;5.50;;;15.40;1.00;;;;;;5045636;28;21145;-55
2022/06/03 01:15:07;;;;;;;11.40;5.30;;;15.40;1.00;;;;;;5050708;28;20437;-60
2022/06/03 01:18:01;;;;;;;9.43;5.90;;;15.60;99.90;;;;;;5050971;28;20533;-61
2022/06/03 01:21:00;;;;;;;9.40;5.77;;;15.60;99.90;;;;;;5036635;28;20874;-60
2022/06/03 01:23:41;;;;;;;8.50;5.30;;;15.60;99.90;;;;;;5049859;28;20505;-62
2022/06/03 01:26:45;;;;;;;9.27;5.53;;;15.50;1.00;;;;;;5049185;28;20415;-61
2022/06/03 01:29:32;;;;;;;7.57;4.90;;;15.40;1.00;;;;;;5013380;28;20436;-63
2022/06/03 01:32:25;;;;;;;8.13;5.23;;;15.40;1.00;;;;;;5049443;28;20775;-63
2022/06/03 01:35:31;;;;;;;8.30;5.35;;;15.40;1.00;;;;;;5049374;28;20566;-60
2022/06/03 01:38:29;;;;;;;8.68;5.25;;;15.40;1.00;;;;;;5011867;28;20399;-61
2022/06/03 01:40:57;;;;;;;9.18;5.35;;;15.30;1.00;;;;;;5012066;28;20403;-61
2022/06/03 01:43:31;;;;;;;8.45;5.15;;;15.20;26.00;;;;;;5043294;28;20405;-61
2022/06/03 01:46:21;;;;;;;8.70;5.50;;;15.10;99.90;;;;;;5048966;28;20472;-62
2022/06/03 01:49:11;;;;;;;8.90;5.88;;;15.00;99.90;;;;;;5030108;28;20394;-56
2022/06/03 01:51:59;;;;;;;11.30;5.50;;;15.00;99.90;;;;;;5027650;28;20430;-62
2022/06/03 01:55:14;;;;;;;9.45;5.38;;;15.00;99.90;;;;;;5050169;28;20393;-62
2022/06/03 01:58:04;;;;;;;9.32;5.00;;;15.00;99.90;;;;;;5043128;28;20878;-59
2022/06/03 02:00:39;;;;;;;9.10;5.53;;;14.90;1.00;;;;;;5049441;28;20874;-60
2022/06/03 02:03:24;;;;;;;8.10;4.90;;;14.90;33.70;;;;;;5031174;28;20398;-61
2022/06/03 02:05:50;;;;;;;9.35;5.28;;;14.80;99.90;;;;;;5049367;28;20904;-55
2022/06/03 02:08:36;;;;;;;8.97;5.50;;;14.80;99.90;;;;;;5049545;28;20425;-61
2022/06/03 02:11:20;;;;;;;9.45;5.80;;;14.70;1.00;;;;;;5048168;28;20451;-62
2022/06/03 02:14:12;;;;;;;8.18;5.32;;;14.60;60.60;;;;;;5049188;28;20401;-62
2022/06/03 02:16:55;;;;;;;9.57;5.50;;;14.50;1.00;;;;;;5048968;28;20468;-62
2022/06/03 02:19:27;;;;;;;10.30;5.80;;;14.60;99.90;;;;;;5049372;28;20420;-60
2022/06/03 02:22:25;;;;;;;8.37;5.37;;;14.70;1.00;;;;;;5047867;28;20851;-60
2022/06/03 02:25:15;;;;;;;9.93;6.18;;;14.50;1.00;;;;;;5004470;28;20465;-56
2022/06/03 02:28:02;;;;;;;9.73;5.57;;;14.50;1.00;;;;;;5033279;28;21265;-60
2022/06/03 02:30:37;;;;;;;9.63;5.47;;;14.50;1.00;;;;;;5048166;28;20393;-59
2022/06/03 02:33:24;;;;;;;9.55;5.55;;;14.30;99.90;;;;;;5048708;28;20392;-60
2022/06/03 02:36:23;;;;;;;8.47;5.73;;;14.20;99.90;;;;;;5048895;28;20428;-54
2022/06/03 02:39:23;;;;;;;9.00;5.70;;;14.20;1.00;;;;;;5048629;28;20488;-55
2022/06/03 02:42:07;;;;;;;10.80;5.97;;;14.30;1.00;;;;;;5031220;28;20405;-56
2022/06/03 02:45:03;;;;;;;10.07;5.53;;;14.40;99.90;;;;;;5048620;28;20423;-60
2022/06/03 02:47:47;;;;;;;10.02;5.45;;;14.50;1.00;;;;;;5048943;28;20503;-59
2022/06/03 02:50:36;;;;;;;9.93;5.90;;;14.60;1.00;;;;;;5048585;28;20556;-59
2022/06/03 02:53:20;;;;;;;9.63;5.60;;;14.70;99.90;;;;;;5035046;28;20421;-60
2022/06/03 02:56:20;;;;;;;8.95;6.00;;;14.80;1.00;;;;;;5049218;28;20458;-60
2022/06/03 02:59:20;;;;;;;9.15;5.90;;;14.90;99.90;;;;;;5047131;28;20405;-60
2022/06/03 03:01:48;;;;;;;9.98;6.05;;;14.70;1.00;;;;;;5048096;28;20400;-61
2022/06/03 03:04:39;;;;;;;10.37;6.00;;;14.60;99.90;;;;;;5048887;28;20417;-60
2022/06/03 03:07:44;;;;;;;10.30;6.30;;;14.70;99.90;;;;;;5048115;28;20451;-60
2022/06/03 03:10:42;;;;;;;10.23;6.13;;;14.70;99.90;;;;;;5048029;28;20483;-58
2022/06/03 03:13:32;;;;;;;10.13;6.30;;;14.60;1.00;;;;;;5048085;28;20415;-60
2022/06/03 03:16:01;;;;;;;11.73;6.78;;;14.60;1.00;;;;;;5047248;28;20775;-61
2022/06/03 03:18:32;;;;;;;10.40;6.88;;;14.60;1.00;;;;;;5048711;28;20886;-60
2022/06/03 03:21:21;;;;;;;11.35;6.43;;;14.60;1.00;;;;;;5033896;28;20945;-61
2022/06/03 03:24:37;;;;;;;10.80;6.60;;;14.60;1.00;;;;;;5048714;28;20906;-61
2022/06/03 03:27:19;;;;;;;10.70;5.90;;;14.50;99.90;;;;;;5043997;28;20409;-61
2022/06/03 03:30:12;;;;;;;10.68;6.30;;;14.40;99.90;;;;;;5030721;28;20401;-60
2022/06/03 03:33:08;;;;;;;10.70;6.23;;;14.30;1.00;;;;;;5048906;28;20417;-61
2022/06/03 03:36:16;;;;;;;9.32;5.88;;;14.30;99.90;;;;;;5032658;28;20405;-61
2022/06/03 03:39:21;;;;;;;12.10;6.50;;;14.30;99.90;;;;;;5045245;28;20397;-60
2022/06/03 03:42:00;;;;;;;11.13;6.45;;;14.40;1.00;;;;;;5048483;28;20770;-61
2022/06/03 03:44:34;;;;;;;9.75;6.30;;;14.50;1.00;;;;;;5051482;28;20466;-59
2022/06/03 03:47:28;;;;;;;10.07;6.65;;;14.50;1.00;;;;;;5050784;28;20493;-61
2022/06/03 03:49:53;;;;;;;10.07;5.97;;;14.50;1.00;;;;;;5050955;28;20405;-60
2022/06/03 03:52:37;;;;;;;11.70;7.10;;;14.60;99.90;;;;;;5052031;28;20398;-60
2022/06/03 03:55:30;;;;;;;9.77;6.13;;;14.70;99.90;;;;;;5051492;28;20390;-60
2022/06/03 03:58:32;;;;;;;9.60;6.20;;;14.70;99.90;;;;;;5041608;28;20416;-60
2022/06/03 04:01:03;;;;;;;12.32;6.30;;;14.70;28.60;;;;;;5050019;28;20409;-60
2022/06/03 04:03:50;;;;;;;10.32;5.97;;;14.70;1.00;;;;;;5051961;28;20401;-60
2022/06/03 04:06:58;;;;;;;11.15;6.47;;;14.80;1.00;;;;;;5050699;28;20477;-60
2022/06/03 04:09:48;;;;;;;9.95;6.20;;;14.80;1.00;;;;;;5049545;28;20437;-62
2022/06/03 04:12:46;;;;;;;10.60;6.80;;;14.90;99.90;;;;;;5044038;28;20409;-60
2022/06/03 04:15:56;;;;;;;14.05;6.20;;;15.00;1.00;;;;;;5030851;28;20446;-60
2022/06/03 04:18:40;;;;;;;9.85;6.30;;;15.10;1.00;;;;;;5050502;28;20805;-60
2022/06/03 04:21:30;;;;;;;12.50;6.30;;;15.10;1.00;;;;;;5049648;28;20488;-60
2022/06/03 04:24:33;;;;;;;13.60;6.78;;;15.00;1.00;;;;;;5030876;28;20431;-60
2022/06/03 04:27:32;;;;;;;13.63;6.80;;;14.90;1.00;;;;;;5031104;28;20395;-55
2022/06/03 04:30:07;;;;;;;11.90;7.10;;;14.90;1.00;;;;;;5042485;28;20400;-54
2022/06/03 04:32:58;;;;;;;13.50;7.30;;;15.00;1.00;;;;;;5050875;28;20413;-54
2022/06/03 04:35:54;;;;;;;12.00;7.20;;;15.10;1.00;;;;;;5042599;28;20755;-55
2022/06/03 04:38:53;;;;;;;12.07;7.40;;;15.30;99.90;;;;;;5051583;28;20472;-55
2022/06/03 04:41:39;;;;;;;11.60;6.90;;;15.30;99.90;;;;;;5051352;28;20799;-60
2022/06/03 04:44:27;;;;;;;10.65;7.00;;;15.30;99.90;;;;;;5049819;28;20424;-58
2022/06/03 04:47:14;;;;;;;10.80;6.70;;;15.40;99.90;;;;;;5050793;28;20416;-59
2022/06/03 04:49:59;;;;;;;10.68;7.00;;;15.60;99.90;;;;;;5040430;28;20405;-58
2022/06/03 04:52:50;;;;;;;9.43;6.28;;;15.90;1.00;;;;;;5050653;28;20499;-58
2022/06/03 04:55:53;;;;;;;10.75;6.97;;;16.60;99.90;;;;;;5049607;28;20740;-55
2022/06/03 04:58:46;;;;;;;9.43;5.90;;;18.20;99.90;;;;;;5031165;28;20384;-56
2022/06/03 05:01:11;;;;;;;11.20;5.97;;;20.10;1.00;;;;;;5044235;28;20523;-55
2022/06/03 05:04:18;;;;;;;9.23;5.70;;;21.80;99.90;;;;;;5050462;28;20873;-55
2022/06/03 05:07:25;;;;;;;9.93;5.50;;;22.60;99.90;;;;;;4969337;28;20403;-57
2022/06/03 05:10:11;;;;;;;8.85;5.90;;;24.30;99.90;;;;;;5016253;28;20414;-59
2022/06/03 05:12:53;;;;;;;10.68;5.50;;;25.60;99.90;;;;;;5047161;28;20875;-57
2022/06/03 05:15:38;;;;;;;11.23;5.80;;;26.00;99.90;;;;;;5049700;28;20400;-57
2022/06/03 05:18:41;;;;;;;9.70;5.82;;;26.10;99.90;;;;;;5029448;28;20884;-56
2022/06/03 05:21:18;;;;;;;11.02;6.13;;;25.60;99.90;;;;;;5046042;28;20401;-59
2022/06/03 05:24:13;;;;;;;10.07;6.35;;;24.90;99.90;;;;;;5049767;28;20524;-56
2022/06/03 05:26:51;;;;;;;8.83;6.10;;;24.10;99.90;;;;;;5049395;28;20920;-56
2022/06/03 05:29:38;;;;;;;9.87;5.90;;;23.50;99.90;;;;;;5047229;28;20413;-56
2022/06/03 05:32:22;;;;;;;9.45;6.22;;;22.90;99.90;;;;;;5047238;28;20397;-56
2022/06/03 05:35:06;;;;;;;10.70;6.75;;;22.60;99.90;;;;;;5047015;28;20802;-57
2022/06/03 05:38:11;;;;;;;11.15;5.60;;;23.20;99.90;;;;;;5050291;28;20378;-58
2022/06/03 05:40:59;;;;;;;10.65;5.93;;;24.30;99.90;;;;;;5050348;28;20402;-56
2022/06/03 05:43:44;;;;;;;11.20;6.40;;;25.10;99.90;;;;;;5048858;28;20411;-57
2022/06/03 05:46:17;;;;;;;10.25;6.47;;;26.10;99.90;;;;;;5045861;28;20405;-54
2022/06/03 05:49:09;;;;;;;10.20;6.78;;;26.50;99.90;;;;;;5047850;28;20398;-57
2022/06/03 05:51:56;;;;;;;9.50;7.03;;;27.20;99.90;;;;;;5025542;28;20402;-57
2022/06/03 05:54:58;;;;;;;9.90;7.88;;;27.40;99.90;;;;;;5034386;28;20849;-58
2022/06/03 05:57:42;;;;;;;17.80;8.63;;;27.80;99.90;;;;;;5049616;28;20893;-57
2022/06/03 06:00:26;;;;;;;13.13;8.70;;;28.10;99.90;;;;;;5048801;28;20408;-61
2022/06/03 06:03:04;;;;;;;12.02;9.30;;;28.40;99.90;;;;;;5049749;28;20481;-59
2022/06/03 06:05:47;;;;;;;14.52;10.18;;;28.50;99.90;;;;;;5042888;28;20413;-57
2022/06/03 06:08:27;;;;;;;10.18;8.32;;;28.40;99.90;;;;;;5046013;28;20425;-56
2022/06/03 06:11:15;;;;;;;11.13;9.93;;;28.80;99.90;;;;;;5049030;28;20397;-60
2022/06/03 06:14:13;;;;;;;13.03;9.30;;;29.20;99.90;;;;;;5038087;28;20394;-57
2022/06/03 06:16:41;;;;;;;34.03;12.60;;;29.50;99.90;;;;;;5056517;28;20398;-57
2022/06/03 06:19:10;;;;;;;12.02;10.40;;;30.10;99.90;;;;;;5057668;28;20386;-57
2022/06/03 06:21:48;;;;;;;12.65;9.90;;;30.10;99.90;;;;;;5048907;28;20401;-57
2022/06/03 06:24:27;;;;;;;12.13;10.37;;;29.60;99.90;;;;;;5031039;28;20694;-57
2022/06/03 06:27:18;;;;;;;16.73;10.68;;;30.00;99.90;;;;;;5045776;28;20409;-60
2022/06/03 06:29:55;;;;;;;18.30;11.20;;;30.40;99.90;;;;;;5046732;28;20466;-57
2022/06/03 06:32:37;;;;;;;13.77;10.85;;;30.90;99.90;;;;;;5044841;28;20389;-57
2022/06/03 06:35:12;;;;;;;14.60;11.63;;;30.40;99.90;;;;;;5046703;28;20519;-57
2022/06/03 06:38:03;;;;;;;17.15;12.07;;;30.00;99.90;;;;;;5047442;28;20412;-57
2022/06/03 06:40:34;;;;;;;13.63;10.70;;;29.70;99.90;;;;;;5048571;28;20416;-57
2022/06/03 06:43:18;;;;;;;13.00;10.55;;;29.60;99.90;;;;;;5047671;28;20389;-57
2022/06/03 06:45:53;;;;;;;13.40;11.33;;;29.60;99.90;;;;;;5045033;28;20487;-57
2022/06/03 06:48:21;;;;;;;13.50;12.10;;;29.80;99.90;;;;;;5047206;28;20401;-57
2022/06/03 06:50:56;;;;;;;11.53;9.93;;;29.80;99.90;;;;;;5048324;28;20433;-57
2022/06/03 06:53:35;;;;;;;15.05;11.02;;;29.70;99.90;;;;;;5046799;28;20393;-57
2022/06/03 06:56:10;;;;;;;15.00;10.90;;;28.80;99.90;;;;;;5047527;28;20398;-57
2022/06/03 06:58:50;;;;;;;16.38;12.00;;;28.60;99.90;;;;;;5039680;28;20425;-57
2022/06/03 07:01:28;;;;;;;14.27;11.40;;;28.00;99.90;;;;;;5047944;28;20385;-57
2022/06/03 07:03:59;;;;;;;17.33;12.35;;;27.90;99.90;;;;;;5048005;28;20496;-59
2022/06/03 07:06:53;;;;;;;15.70;10.88;;;28.10;99.90;;;;;;5048148;28;20890;-57
2022/06/03 07:09:33;;;;;;;14.45;11.95;;;28.70;99.90;;;;;;5048853;28;20443;-57
2022/06/03 07:12:10;;;;;;;14.73;10.85;;;28.90;99.90;;;;;;5047128;28;20401;-57
2022/06/03 07:14:45;;;;;;;14.25;12.43;;;30.10;99.90;;;;;;5046427;28;20417;-57
2022/06/03 07:20:42;;;;;;;16.93;12.80;;;32.40;99.90;;;;;;5054044;28;20390;-57
2022/06/03 07:23:18;;;;;;;14.63;13.05;;;33.30;99.90;;;;;;5051612;28;20421;-57
2022/06/03 07:25:54;;;;;;;16.27;13.13;;;33.60;99.90;;;;;;5057379;28;20419;-57
2022/06/03 07:28:46;;;;;;;15.77;13.30;;;33.80;99.90;;;;;;5065373;28;20396;-56
2022/06/03 07:31:33;;;;;;;15.25;13.65;;;33.50;99.90;;;;;;5052564;28;20480;-57
2022/06/03 07:34:12;;;;;;;14.38;12.88;;;33.80;99.90;;;;;;5052833;28;20463;-58
2022/06/03 07:36:52;;;;;;;15.07;13.67;;;33.70;99.90;;;;;;5047852;28;20901;-57
2022/06/03 07:39:26;;;;;;;12.50;11.00;;;33.60;99.90;;;;;;5048065;28;20387;-58
2022/06/03 07:42:10;;;;;;;14.37;12.97;;;34.30;99.90;;;;;;5050538;28;20504;-58
2022/06/03 07:45:23;;;;;;;14.60;13.10;;;34.80;99.90;;;;;;5051518;28;20468;-58
2022/06/03 07:47:50;;;;;;;14.65;12.95;;;35.30;99.90;;;;;;4970444;28;20416;-57
2022/06/03 07:50:21;;;;;;;17.77;13.50;;;35.30;99.90;;;;;;4965776;28;20484;-58
2022/06/03 07:52:54;;;;;;;13.32;8.77;;;35.10;99.90;;;;;;5015015;28;20409;-56
2022/06/03 07:55:25;;;;;;;13.60;8.32;;;35.50;99.90;;;;;;5039685;28;20451;-56
2022/06/03 07:58:04;;;;;;;11.02;8.65;;;35.70;99.90;;;;;;5050079;28;20393;-56
2022/06/03 08:00:34;;;;;;;11.35;8.50;;;35.70;99.90;;;;;;5051983;28;20469;-58
2022/06/03 08:03:12;;;;;;;9.90;7.82;;;35.40;99.90;;;;;;5051723;28;20724;-60
2022/06/03 08:05:37;;;;;;;12.57;8.60;;;34.90;99.90;;;;;;5046694;28;20505;-60
2022/06/03 08:10:56;;;;;;;11.07;7.97;;;33.20;99.90;;;;;;5050446;28;20449;-58
2022/06/03 08:13:23;;;;;;;12.57;8.60;;;34.70;99.90;;;;;;5048920;28;20401;-58
2022/06/03 08:15:53;;;;;;;11.00;7.68;;;35.30;99.90;;;;;;5051278;28;20411;-58
2022/06/03 08:18:21;;;;;;;10.30;7.33;;;35.60;99.90;;;;;;5049931;28;20416;-57
2022/06/03 08:20:51;;;;;;;12.07;7.40;;;35.20;99.90;;;;;;5048804;28;20385;-58
2022/06/03 08:23:19;;;;;;;14.63;8.48;;;35.00;99.90;;;;;;5049274;28;20424;-58
2022/06/03 08:25:49;;;;;;;11.85;8.52;;;35.10;99.90;;;;;;5049671;28;20475;-57
2022/06/03 08:28:25;;;;;;;12.05;7.78;;;35.50;99.90;;;;;;5049263;28;20397;-57
2022/06/03 08:30:53;;;;;;;11.90;7.03;;;35.80;99.90;;;;;;5050313;28;20461;-56
2022/06/03 08:33:38;;;;;;;11.00;7.72;;;36.40;99.90;;;;;;5048719;28;20469;-56
2022/06/03 08:36:05;;;;;;;12.63;7.50;;;36.00;99.90;;;;;;5050253;28;20472;-55
2022/06/03 08:38:42;;;;;;;9.70;7.40;;;35.10;99.90;;;;;;5052419;28;20402;-57
2022/06/03 08:41:16;;;;;;;11.18;6.80;;;35.50;99.90;;;;;;5049012;28;20893;-57
2022/06/03 08:44:13;;;;;;;11.98;10.88;;;36.10;99.90;;;;;;5048903;28;20401;-57
2022/06/03 08:46:53;;;;;;;11.40;10.30;;;36.70;99.90;;;;;;5049842;28;20419;-57
2022/06/03 08:49:21;;;;;;;14.00;12.60;;;37.30;99.90;;;;;;5049867;28;20377;-57
2022/06/03 08:52:01;;;;;;;12.50;11.38;;;37.30;99.90;;;;;;5047498;28;20464;-57
2022/06/03 08:54:42;;;;;;;12.40;10.75;;;37.60;99.90;;;;;;5050505;28;20394;-57
2022/06/03 08:57:18;;;;;;;11.80;10.70;;;37.30;99.90;;;;;;5050674;28;20417;-57
2022/06/03 09:00:01;;;;;;;14.02;10.50;;;37.50;99.90;;;;;;5049864;28;20439;-57
2022/06/03 09:02:33;;;;;;;12.03;10.83;;;36.90;99.90;;;;;;5050468;28;20398;-57
2022/06/03 09:05:09;;;;;;;12.27;8.60;;;37.00;99.90;;;;;;5047326;28;20466;-59
2022/06/03 09:07:45;;;;;;;12.70;9.20;;;37.40;99.90;;;;;;5045524;28;20418;-57
2022/06/03 09:10:19;;;;;;;10.32;9.05;;;38.10;99.90;;;;;;5048192;28;20457;-57
2022/06/03 09:12:55;;;;;;;11.10;9.30;;;38.70;99.90;;;;;;5050495;28;20839;-57
2022/06/03 09:15:23;;;;;;;10.30;9.20;;;38.30;99.90;;;;;;5048033;28;20901;-57
2022/06/03 09:18:06;;;;;;;12.00;10.40;;;38.00;99.90;;;;;;5050688;28;20381;-57
2022/06/03 09:20:42;;;;;;;10.40;8.40;;;38.60;99.90;;;;;;5046440;28;20900;-57
2022/06/03 09:23:11;;;;;;;9.50;7.80;;;38.40;99.90;;;;;;5036967;28;20419;-57
2022/06/03 09:25:42;;;;;;;10.68;9.57;;;38.80;99.90;;;;;;5049805;28;20416;-57
2022/06/03 09:28:14;;;;;;;11.70;10.32;;;38.40;99.90;;;;;;5049407;28;20382;-57
2022/06/03 09:30:40;;;;;;;9.53;8.30;;;38.20;99.90;;;;;;5050447;28;20465;-57
2022/06/03 09:33:11;;;;;;;15.33;11.70;;;37.90;99.90;;;;;;5048377;28;20882;-57
2022/06/03 09:35:39;;;;;;;11.40;10.40;;;37.30;99.90;;;;;;5050398;28;20842;-57
2022/06/03 09:38:06;;;;;;;13.38;11.98;;;36.20;99.90;;;;;;5050576;28;20463;-57
2022/06/03 09:40:36;;;;;;;10.65;9.20;;;34.30;99.90;;;;;;5055551;28;20913;-57
2022/06/03 09:43:06;;;;;;;11.50;8.77;;;34.00;99.90;;;;;;5060995;28;20441;-58
2022/06/03 09:45:34;;;;;;;9.63;8.63;;;34.70;99.90;;;;;;5044525;28;20417;-57
2022/06/03 09:48:03;;;;;;;10.50;9.40;;;35.20;99.90;;;;;;5050995;28;20848;-60
2022/06/03 09:50:29;;;;;;;11.10;9.80;;;35.60;99.90;;;;;;5042549;28;20389;-58
2022/06/03 09:53:07;;;;;;;12.52;9.80;;;35.30;99.90;;;;;;5046941;28;20782;-58
2022/06/03 09:55:37;;;;;;;11.02;9.70;;;35.60;99.90;;;;;;5051026;28;20455;-58
2022/06/03 09:58:06;;;;;;;9.80;8.50;;;35.20;99.90;;;;;;5049318;28;20381;-58
2022/06/03 10:00:49;;;;;;;10.00;8.30;;;35.80;99.90;;;;;;5053424;28;20735;-57
2022/06/03 10:03:15;;;;;;;10.93;8.90;;;36.40;99.90;;;;;;5049205;28;20374;-58
2022/06/03 10:05:45;;;;;;;11.10;8.20;;;36.60;99.90;;;;;;5049364;28;20418;-58
2022/06/03 10:08:12;;;;;;;9.90;8.90;;;37.00;99.90;;;;;;5049137;28;20400;-58
2022/06/03 10:13:23;;;;;;;9.82;8.88;;;35.80;99.90;;;;;;5046898;28;20388;-59
2022/06/03 10:15:56;;;;;;;10.57;9.48;;;34.70;99.90;;;;;;5047733;28;20772;-57
2022/06/03 10:18:39;;;;;;;9.70;8.13;;;34.80;99.90;;;;;;5048598;28;20382;-58
2022/06/03 10:21:05;;;;;;;10.05;8.82;;;34.50;99.90;;;;;;5047311;28;20429;-57
2022/06/03 10:23:37;;;;;;;12.25;9.60;;;34.30;99.90;;;;;;5048586;28;20440;-57
2022/06/03 10:26:04;;;;;;;13.90;8.27;;;33.30;99.90;;;;;;5026949;28;20805;-58
2022/06/03 10:28:40;;;;;;;9.52;8.32;;;32.90;99.90;;;;;;5048243;28;21938;-60
2022/06/03 10:31:12;;;;;;;10.75;9.75;;;32.80;99.90;;;;;;5046039;28;20401;-60
2022/06/03 10:33:38;;;;;;;9.10;7.60;;;33.40;99.90;;;;;;5048825;28;20389;-58
2022/06/03 10:36:05;;;;;;;9.80;8.60;;;33.70;99.90;;;;;;5048312;28;20878;-58
2022/06/03 10:38:33;;;;;;;9.40;7.90;;;34.10;99.90;;;;;;5048145;28;20499;-58
2022/06/03 10:41:09;;;;;;;10.20;8.25;;;34.20;99.90;;;;;;5047487;28;20413;-60
2022/06/03 10:43:39;;;;;;;9.27;8.27;;;33.90;99.90;;;;;;5046921;28;20410;-58
2022/06/03 10:46:09;;;;;;;11.55;8.35;;;33.30;99.90;;;;;;5046738;28;20409;-58
2022/06/03 10:48:35;;;;;;;9.45;7.97;;;32.90;99.90;;;;;;5048386;28;20500;-58
2022/06/03 10:51:18;;;;;;;10.43;8.15;;;33.30;99.90;;;;;;5048008;28;20921;-59
2022/06/03 11:02:36;;;;;;;11.02;7.82;;;33.20;99.90;;;;;;5051790;28;20499;-58
2022/06/03 11:05:28;;;;;;;10.48;9.38;;;33.20;99.90;;;;;;5051290;28;20452;-60
2022/06/03 11:08:04;;;;;;;9.68;8.13;;;32.70;99.90;;;;;;5050620;28;20400;-57
2022/06/03 11:10:39;;;;;;;11.45;8.60;;;32.20;99.90;;;;;;5050370;28;20386;-62
2022/06/03 11:13:07;;;;;;;9.82;8.77;;;32.20;99.90;;;;;;5051697;28;20385;-64
2022/06/03 11:15:42;;;;;;;10.27;9.27;;;31.50;99.90;;;;;;5052582;28;20392;-62
2022/06/03 11:18:22;;;;;;;10.73;9.63;;;30.70;99.90;;;;;;5051770;28;20387;-62
2022/06/03 11:20:50;;;;;;;11.10;9.90;;;30.40;99.90;;;;;;5052762;28;20468;-62
2022/06/03 11:23:17;;;;;;;11.23;9.00;;;29.90;99.90;;;;;;5052001;28;20425;-62
2022/06/03 11:25:49;;;;;;;11.47;8.60;;;29.30;99.90;;;;;;5052590;28;20762;-62
2022/06/03 11:28:24;;;;;;;14.95;8.57;;;28.60;99.90;;;;;;5034411;28;20843;-62
2022/06/03 11:31:05;;;;;;;11.63;8.43;;;28.20;99.90;;;;;;5052918;28;20512;-63
2022/06/03 11:33:44;;;;;;;13.07;8.85;;;27.90;99.90;;;;;;5052609;28;20394;-62
2022/06/03 11:36:11;;;;;;;11.07;8.80;;;28.00;99.90;;;;;;5051953;28;20386;-62
2022/06/03 11:38:49;;;;;;;11.80;8.90;;;28.00;99.90;;;;;;5052668;28;20388;-62
2022/06/03 11:41:21;;;;;;;10.45;9.05;;;28.00;99.90;;;;;;5052103;28;20424;-62
2022/06/03 11:43:54;;;;;;;11.80;7.80;;;28.00;99.90;;;;;;5052149;28;20395;-62
2022/06/03 11:46:34;;;;;;;12.80;9.00;;;27.90;99.90;;;;;;5051719;28;20382;-62
2022/06/03 11:49:00;;;;;;;11.60;8.60;;;27.70;99.90;;;;;;5046504;28;20892;-56
2022/06/03 11:51:26;;;;;;;11.80;8.40;;;27.80;99.90;;;;;;5051664;28;20778;-61
2022/06/03 11:53:52;;;;;;;11.25;7.80;;;27.80;99.90;;;;;;5052370;28;20412;-61
2022/06/03 11:56:24;;;;;;;10.37;8.10;;;27.80;99.90;;;;;;5051163;28;20748;-61
2022/06/03 11:59:12;;;;;;;9.35;8.15;;;27.80;99.90;;;;;;5051118;28;20394;-62
2022/06/03 12:01:56;;;;;;;10.73;8.80;;;27.80;99.90;;;;;;5046613;28;20455;-60
2022/06/03 12:04:47;;;;;;;10.38;8.10;;;27.70;99.90;;;;;;5048294;28;20961;-60
2022/06/03 12:08:00;;;;;;;14.40;10.30;;;27.40;99.90;;;;;;5050966;28;20396;-61
2022/06/03 12:10:40;;;;;;;11.70;8.63;;;27.20;99.90;;;;;;5011676;28;20413;-61
2022/06/03 12:13:15;;;;;;;13.02;7.65;;;27.40;99.90;;;;;;5050512;28;20451;-61
2022/06/03 12:15:41;;;;;;;10.85;8.20;;;27.90;99.90;;;;;;5050660;28;20397;-61
2022/06/03 12:18:06;;;;;;;9.98;7.70;;;28.30;99.90;;;;;;5049768;28;20401;-61
2022/06/03 12:20:32;;;;;;;12.73;7.50;;;28.70;99.90;;;;;;5051720;28;20397;-64
2022/06/03 12:23:18;;;;;;;12.17;7.73;;;29.00;99.90;;;;;;5051602;28;20441;-64
2022/06/03 12:26:06;;;;;;;12.10;8.40;;;29.00;99.90;;;;;;5043631;28;20806;-59
2022/06/03 12:28:45;;;;;;;10.90;7.97;;;28.90;99.90;;;;;;5050189;28;20410;-60
2022/06/03 12:31:22;;;;;;;12.40;8.10;;;29.00;99.90;;;;;;5049286;28;20409;-61
2022/06/03 12:34:26;;;;;;;11.50;8.00;;;29.40;99.90;;;;;;5051241;28;20381;-61
2022/06/03 12:37:00;;;;;;;10.52;8.18;;;29.20;99.90;;;;;;5049735;28;20409;-61
2022/06/03 12:39:33;;;;;;;9.73;8.10;;;29.10;99.90;;;;;;5050699;28;20381;-61
2022/06/03 12:42:07;;;;;;;9.77;8.10;;;29.30;99.90;;;;;;5050538;28;20405;-60
2022/06/03 12:45:13;;;;;;;10.88;8.80;;;29.20;99.90;;;;;;5051186;28;20420;-61
2022/06/03 12:47:47;;;;;;;10.52;8.20;;;28.70;99.90;;;;;;5049875;28;20400;-61
2022/06/03 12:50:37;;;;;;;11.27;8.68;;;28.60;99.90;;;;;;5030607;28;20387;-60
2022/06/03 12:53:34;;;;;;;12.05;8.90;;;28.90;99.90;;;;;;5030522;28;20391;-57
2022/06/03 12:56:03;;;;;;;11.77;7.53;;;29.20;99.90;;;;;;5031056;28;20453;-56
2022/06/03 12:58:50;;;;;;;14.43;7.73;;;28.90;99.90;;;;;;5030431;28;20740;-61
2022/06/03 13:01:42;;;;;;;13.52;8.32;;;29.20;99.90;;;;;;5048325;28;20413;-61
2022/06/03 13:04:42;;;;;;;11.23;8.60;;;29.30;99.90;;;;;;5039491;28;20452;-60
2022/06/03 13:07:14;;;;;;;11.30;8.60;;;29.30;99.90;;;;;;5049647;28;20385;-61
2022/06/03 13:10:02;;;;;;;11.77;8.68;;;29.10;99.90;;;;;;5049878;28;20743;-60
2022/06/03 13:12:34;;;;;;;11.88;8.07;;;29.00;99.90;;;;;;5049418;28;20788;-60
2022/06/03 13:15:21;;;;;;;9.60;8.30;;;29.00;99.90;;;;;;5049213;28;20909;-58
2022/06/03 13:17:58;;;;;;;12.98;8.80;;;28.90;99.90;;;;;;5050514;28;20857;-57
2022/06/03 13:20:38;;;;;;;13.10;10.27;;;28.60;99.90;;;;;;5049593;28;20401;-57
2022/06/03 13:23:22;;;;;;;11.85;8.85;;;28.20;99.90;;;;;;5049434;28;20910;-59
2022/06/03 13:25:49;;;;;;;9.65;8.05;;;27.80;99.90;;;;;;5050252;28;20448;-58
2022/06/03 13:28:21;;;;;;;9.88;7.90;;;27.50;99.90;;;;;;5049064;28;20396;-57
2022/06/03 13:31:11;;;;;;;10.80;8.68;;;27.30;99.90;;;;;;5047345;28;20409;-57
2022/06/03 13:34:05;;;;;;;11.10;7.80;;;27.10;99.90;;;;;;5050296;28;20723;-59
2022/06/03 13:36:40;;;;;;;11.55;7.32;;;27.00;99.90;;;;;;5050447;28;20859;-58
2022/06/03 13:39:13;;;;;;;11.98;7.55;;;26.80;99.90;;;;;;5047995;28;20488;-58
2022/06/03 13:45:01;;;;;;;11.40;7.70;;;26.20;99.90;;;;;;5046094;28;20730;-58
2022/06/03 13:47:45;;;;;;;10.30;7.17;;;26.10;1.00;;;;;;5012213;28;20939;-58
2022/06/03 13:50:13;;;;;;;14.52;8.85;;;25.90;1.00;;;;;;5047448;28;20469;-58
2022/06/03 13:53:01;;;;;;;11.98;7.80;;;25.80;99.90;;;;;;5048776;28;20973;-57
2022/06/03 13:55:54;;;;;;;10.73;7.85;;;25.70;99.90;;;;;;5037078;28;20442;-54
2022/06/03 13:58:25;;;;;;;12.70;7.65;;;25.70;99.90;;;;;;5044356;28;20413;-58
2022/06/03 14:00:54;;;;;;;12.68;8.40;;;25.80;99.90;;;;;;5048712;28;20397;-58
2022/06/03 14:03:42;;;;;;;11.68;7.70;;;25.30;99.90;;;;;;5026580;28;21195;-58
2022/06/03 14:06:20;;;;;;;13.65;8.10;;;26.00;99.90;;;;;;5044414;28;20776;-58
2022/06/03 14:08:52;;;;;;;11.80;7.28;;;26.20;99.90;;;;;;5047072;28;20441;-58
2022/06/03 14:11:28;;;;;;;11.70;7.60;;;26.40;99.90;;;;;;5047292;28;20385;-57
2022/06/03 14:14:35;;;;;;;14.25;7.90;;;26.50;99.90;;;;;;5048545;28;20472;-57
2022/06/03 14:17:13;;;;;;;11.80;7.43;;;26.50;99.90;;;;;;5027277;28;20459;-58